Time;durP1;ratioP1;P1;durP2;ratioP2;P2;SDS_P1;SDS_P2;PMS_P1;PMS_P2;Temp;Humidity;BMP_temperature;BMP_pressure;BME280_temperature;BME280_humidity;BME280_pressure;Samples;Min_cycle;Max_cycle;Signal;HPM_P1;HPM_P2
2023/09/26 00:01:46;;;;;;;5.85;3.60;;;13.70;54.70;;;;;;5036059;28;20380;-73
2023/09/26 00:04:11;;;;;;;4.90;3.60;;;13.70;55.00;;;;;;5034272;28;20418;-72
2023/09/26 00:06:37;;;;;;;6.00;3.83;;;13.60;55.20;;;;;;5033620;28;20432;-70
2023/09/26 00:09:05;;;;;;;6.03;3.90;;;13.60;55.60;;;;;;5034327;28;20387;-71
2023/09/26 00:11:33;;;;;;;6.10;3.90;;;13.60;55.20;;;;;;5033414;28;20425;-72
2023/09/26 00:13:59;;;;;;;8.15;3.70;;;13.60;55.00;;;;;;5033362;28;20494;-71
2023/09/26 00:16:25;;;;;;;7.10;3.97;;;13.60;55.50;;;;;;5035118;28;20379;-72
2023/09/26 00:18:51;;;;;;;6.57;3.80;;;13.60;55.20;;;;;;5035982;28;20411;-72
2023/09/26 00:21:16;;;;;;;5.60;3.87;;;13.60;55.30;;;;;;5035600;28;20887;-72
2023/09/26 00:23:42;;;;;;;6.20;3.70;;;13.60;55.60;;;;;;5034526;28;20399;-72
2023/09/26 00:26:08;;;;;;;6.80;4.40;;;13.60;55.40;;;;;;5032754;28;20391;-71
2023/09/26 00:28:34;;;;;;;6.35;4.38;;;13.60;55.50;;;;;;5032392;28;20398;-72
2023/09/26 00:31:04;;;;;;;6.10;4.30;;;13.60;56.10;;;;;;5032565;28;20386;-72
2023/09/26 00:33:31;;;;;;;6.65;4.10;;;13.50;56.20;;;;;;5014899;28;20395;-72
2023/09/26 00:35:58;;;;;;;7.50;3.78;;;13.60;55.90;;;;;;5018852;28;20388;-73
2023/09/26 00:38:23;;;;;;;7.35;4.10;;;13.60;55.70;;;;;;5037131;28;20407;-71
2023/09/26 00:40:49;;;;;;;5.80;4.50;;;13.50;56.50;;;;;;5036116;28;20896;-72
2023/09/26 00:43:24;;;;;;;6.03;3.80;;;13.40;56.90;;;;;;5034685;28;20402;-72
2023/09/26 00:45:55;;;;;;;6.55;3.90;;;13.40;57.60;;;;;;5034872;28;20391;-71
2023/09/26 00:48:24;;;;;;;5.55;3.80;;;13.40;57.40;;;;;;5034668;28;20383;-71
2023/09/26 00:50:54;;;;;;;6.95;4.20;;;13.30;58.00;;;;;;5033789;28;20886;-73
2023/09/26 00:53:21;;;;;;;8.38;4.60;;;13.20;59.20;;;;;;5033260;28;20449;-72
2023/09/26 00:55:49;;;;;;;7.30;4.10;;;13.20;59.70;;;;;;5033549;28;20395;-72
2023/09/26 00:58:18;;;;;;;6.25;4.35;;;13.20;60.40;;;;;;5033761;28;20819;-71
2023/09/26 01:00:45;;;;;;;7.72;4.28;;;13.10;61.50;;;;;;5033294;28;20792;-72
2023/09/26 01:03:11;;;;;;;8.02;5.10;;;13.20;61.20;;;;;;5033259;28;20383;-71
2023/09/26 01:05:36;;;;;;;10.57;4.50;;;13.10;62.10;;;;;;5033378;28;20902;-72
2023/09/26 01:08:04;;;;;;;4.73;3.87;;;13.10;63.20;;;;;;5033874;28;20391;-71
2023/09/26 01:10:29;;;;;;;6.68;3.83;;;13.00;63.80;;;;;;5015857;28;20407;-72
2023/09/26 01:12:56;;;;;;;7.60;4.20;;;13.00;64.60;;;;;;5032066;28;20390;-70
2023/09/26 01:15:31;;;;;;;5.55;3.97;;;12.90;65.60;;;;;;5032239;28;20391;-71
2023/09/26 01:17:57;;;;;;;6.35;4.25;;;12.90;66.70;;;;;;5031491;28;20414;-71
2023/09/26 01:20:24;;;;;;;8.27;4.10;;;12.80;67.40;;;;;;5032053;28;20371;-71
2023/09/26 01:22:50;;;;;;;7.88;4.22;;;12.80;67.90;;;;;;5032185;28;20391;-70
2023/09/26 01:25:16;;;;;;;7.40;4.60;;;12.80;68.60;;;;;;5032458;28;20808;-71
2023/09/26 01:27:42;;;;;;;8.50;4.20;;;12.80;69.60;;;;;;5032216;28;20779;-72
2023/09/26 01:30:09;;;;;;;7.35;4.80;;;12.70;69.90;;;;;;5032826;28;20387;-72
2023/09/26 01:32:34;;;;;;;6.70;4.75;;;12.70;70.10;;;;;;5032696;28;20391;-70
2023/09/26 01:35:00;;;;;;;5.10;4.20;;;12.70;70.20;;;;;;5033426;28;20465;-70
2023/09/26 01:37:25;;;;;;;7.38;4.45;;;12.70;70.70;;;;;;5033128;28;20413;-72
2023/09/26 01:39:51;;;;;;;5.03;4.30;;;12.70;71.10;;;;;;5034031;28;20391;-72
2023/09/26 01:42:16;;;;;;;5.70;4.60;;;12.60;71.00;;;;;;5032934;28;20385;-71
2023/09/26 01:44:42;;;;;;;5.80;4.10;;;12.70;71.70;;;;;;5033889;28;20394;-71
2023/09/26 01:47:19;;;;;;;8.27;4.23;;;12.70;70.10;;;;;;5034563;28;20459;-71
2023/09/26 01:49:44;;;;;;;6.85;4.70;;;12.80;69.70;;;;;;5033587;28;20387;-72
2023/09/26 01:52:10;;;;;;;7.70;4.90;;;12.70;69.80;;;;;;5033704;28;20386;-71
2023/09/26 01:54:35;;;;;;;6.17;4.17;;;12.70;69.70;;;;;;5033963;28;20470;-72
2023/09/26 01:57:01;;;;;;;6.57;5.10;;;12.60;69.70;;;;;;5033835;28;20740;-72
2023/09/26 01:59:26;;;;;;;6.47;4.60;;;12.60;70.30;;;;;;5032958;28;20398;-72
2023/09/26 02:01:52;;;;;;;8.68;4.60;;;12.60;71.30;;;;;;5034066;28;20803;-73
2023/09/26 02:04:17;;;;;;;7.90;4.63;;;12.60;72.00;;;;;;5016856;28;20391;-71
2023/09/26 02:06:43;;;;;;;6.30;4.70;;;12.50;72.40;;;;;;5035028;28;20406;-73
2023/09/26 02:09:08;;;;;;;6.43;4.00;;;12.60;71.10;;;;;;5034224;28;20868;-73
2023/09/26 02:11:34;;;;;;;7.77;5.40;;;12.50;72.40;;;;;;5033646;28;20387;-73
2023/09/26 02:13:59;;;;;;;7.35;5.05;;;12.50;73.00;;;;;;5033705;28;20470;-71
2023/09/26 02:16:25;;;;;;;10.20;5.60;;;12.50;73.80;;;;;;5033583;28;20404;-72
2023/09/26 02:18:50;;;;;;;7.03;4.83;;;12.50;74.10;;;;;;5033327;28;20403;-72
2023/09/26 02:21:17;;;;;;;10.13;6.40;;;12.50;74.20;;;;;;5015725;28;20903;-72
2023/09/26 02:23:42;;;;;;;6.30;4.60;;;12.50;74.90;;;;;;5033489;28;20455;-70
2023/09/26 02:26:08;;;;;;;11.20;5.40;;;12.40;75.60;;;;;;5030827;28;20407;-71
2023/09/26 02:28:33;;;;;;;6.60;5.10;;;12.40;76.00;;;;;;5033658;28;20391;-73
2023/09/26 02:30:59;;;;;;;8.00;5.30;;;12.40;76.60;;;;;;5032937;28;20387;-72
2023/09/26 02:33:25;;;;;;;7.50;5.70;;;12.30;77.10;;;;;;5032571;28;20419;-71
2023/09/26 02:35:51;;;;;;;6.97;4.80;;;12.30;78.20;;;;;;5032362;28;20441;-71
2023/09/26 02:38:16;;;;;;;6.90;5.20;;;12.30;78.10;;;;;;5033165;28;20414;-71
2023/09/26 02:40:42;;;;;;;6.57;5.32;;;12.30;78.50;;;;;;5034468;28;20379;-71
2023/09/26 02:43:07;;;;;;;10.93;5.85;;;12.30;78.60;;;;;;5016724;28;20865;-72
2023/09/26 02:45:33;;;;;;;6.93;5.65;;;12.20;79.70;;;;;;5033539;28;20391;-71
2023/09/26 02:47:59;;;;;;;9.43;6.10;;;12.20;80.50;;;;;;5032288;28;20872;-73
2023/09/26 02:50:25;;;;;;;11.27;5.90;;;12.20;80.70;;;;;;5034578;28;20401;-72
2023/09/26 02:52:52;;;;;;;10.55;6.05;;;12.20;81.80;;;;;;5034585;28;20387;-71
2023/09/26 02:55:20;;;;;;;9.38;5.82;;;12.30;80.90;;;;;;5034467;28;20406;-72
2023/09/26 02:57:45;;;;;;;7.55;5.53;;;12.30;79.70;;;;;;5034234;28;20410;-72
2023/09/26 03:00:16;;;;;;;8.55;6.28;;;12.30;79.40;;;;;;5035500;28;20395;-72
2023/09/26 03:02:43;;;;;;;9.23;5.80;;;12.30;80.60;;;;;;5033873;28;20445;-71
2023/09/26 03:05:12;;;;;;;7.38;6.18;;;12.30;79.90;;;;;;5033925;28;20384;-71
2023/09/26 03:07:39;;;;;;;9.90;6.63;;;12.20;80.60;;;;;;5015834;28;20418;-71
2023/09/26 03:10:06;;;;;;;10.63;6.82;;;12.20;80.70;;;;;;5034368;28;20884;-72
2023/09/26 03:12:31;;;;;;;9.38;6.65;;;12.10;82.00;;;;;;5033797;28;20442;-72
2023/09/26 03:14:57;;;;;;;9.52;6.30;;;12.20;82.30;;;;;;5035590;28;20383;-71
2023/09/26 03:19:56;;;;;;;7.20;6.30;;;12.10;81.40;;;;;;5011741;28;20448;-71
2023/09/26 03:22:22;;;;;;;9.35;7.00;;;12.10;81.10;;;;;;5013057;28;20381;-70
2023/09/26 03:24:47;;;;;;;9.20;6.68;;;12.20;81.00;;;;;;5013956;28;20389;-71
2023/09/26 03:27:13;;;;;;;14.10;7.00;;;12.10;80.40;;;;;;5014909;28;20397;-71
2023/09/26 03:29:39;;;;;;;10.80;6.70;;;12.20;79.50;;;;;;5013674;28;20393;-71
2023/09/26 03:32:04;;;;;;;9.18;6.93;;;12.10;80.40;;;;;;5014749;28;20464;-71
2023/09/26 03:34:30;;;;;;;11.00;6.50;;;12.10;80.50;;;;;;5014443;28;20430;-71
2023/09/26 03:36:55;;;;;;;11.53;6.67;;;12.10;80.40;;;;;;4996861;28;20397;-71
2023/09/26 03:39:21;;;;;;;10.83;6.30;;;12.10;80.60;;;;;;4996103;28;20912;-71
2023/09/26 03:41:46;;;;;;;10.80;7.10;;;12.10;80.50;;;;;;5012945;28;20746;-71
2023/09/26 03:44:12;;;;;;;12.30;6.90;;;12.00;81.90;;;;;;5013656;28;20457;-71
2023/09/26 03:46:37;;;;;;;10.60;6.93;;;12.00;81.20;;;;;;5012635;28;20468;-71
2023/09/26 03:49:03;;;;;;;11.25;7.22;;;12.00;81.50;;;;;;5012587;28;20941;-70
2023/09/26 03:51:28;;;;;;;7.27;6.20;;;12.00;81.50;;;;;;5012326;28;20465;-71
2023/09/26 03:53:54;;;;;;;9.40;6.33;;;12.00;81.90;;;;;;5013765;28;20753;-71
2023/09/26 03:56:19;;;;;;;8.80;6.53;;;12.00;82.40;;;;;;5012473;28;20439;-71
2023/09/26 03:58:45;;;;;;;11.40;6.97;;;11.90;84.00;;;;;;5011698;28;20921;-71
2023/09/26 04:01:12;;;;;;;9.00;6.50;;;11.90;83.50;;;;;;5011993;28;20423;-71
2023/09/26 04:03:39;;;;;;;10.65;6.88;;;11.90;84.90;;;;;;5012069;28;20393;-71
2023/09/26 04:06:05;;;;;;;8.50;6.37;;;11.90;85.10;;;;;;5012514;28;20387;-71
2023/09/26 04:08:31;;;;;;;13.27;6.90;;;11.90;85.10;;;;;;5011948;28;20844;-73
2023/09/26 04:10:56;;;;;;;11.27;6.82;;;11.90;85.70;;;;;;5011778;28;20385;-72
2023/09/26 04:13:22;;;;;;;10.70;6.90;;;11.90;86.50;;;;;;4994767;28;20451;-72
2023/09/26 04:15:47;;;;;;;9.70;7.23;;;11.90;87.10;;;;;;5012260;28;20500;-73
2023/09/26 04:18:13;;;;;;;7.83;6.60;;;11.90;87.40;;;;;;5011778;28;20424;-72
2023/09/26 04:20:39;;;;;;;15.07;7.00;;;11.90;87.30;;;;;;5011902;28;20397;-72
2023/09/26 04:23:05;;;;;;;12.83;6.93;;;11.90;88.60;;;;;;5011792;28;20385;-72
2023/09/26 04:25:33;;;;;;;11.30;6.90;;;11.80;89.40;;;;;;5011723;28;20388;-71
2023/09/26 04:27:59;;;;;;;9.20;6.75;;;11.80;90.80;;;;;;5011564;28;20392;-71
2023/09/26 04:30:24;;;;;;;13.10;6.97;;;11.80;90.40;;;;;;5012181;28;20877;-71
2023/09/26 04:32:50;;;;;;;10.83;7.07;;;11.80;90.80;;;;;;5011743;28;20424;-71
2023/09/26 04:35:16;;;;;;;9.23;7.10;;;11.70;92.00;;;;;;5012753;28;20468;-72
2023/09/26 04:37:41;;;;;;;10.50;7.60;;;11.70;93.30;;;;;;5012246;28;20536;-72
2023/09/26 04:40:11;;;;;;;10.98;7.45;;;11.70;93.10;;;;;;4994881;28;20886;-75
2023/09/26 04:42:45;;;;;;;14.43;7.57;;;11.70;94.10;;;;;;5013174;28;20393;-71
2023/09/26 04:45:10;;;;;;;13.48;7.85;;;11.70;95.00;;;;;;5012692;28;20515;-72
2023/09/26 04:47:36;;;;;;;9.68;7.00;;;11.70;95.60;;;;;;5015730;28;20814;-71
2023/09/26 04:50:02;;;;;;;16.08;7.88;;;11.70;94.90;;;;;;5013797;28;20389;-72
2023/09/26 04:52:28;;;;;;;11.40;7.47;;;11.60;95.70;;;;;;5014243;28;20487;-72
2023/09/26 04:54:54;;;;;;;14.30;8.20;;;11.60;95.60;;;;;;5014947;28;20388;-71
2023/09/26 04:57:20;;;;;;;11.75;8.38;;;11.60;95.50;;;;;;5015654;28;20412;-71
2023/09/26 04:59:45;;;;;;;10.68;7.47;;;11.60;95.60;;;;;;5016031;28;20389;-71
2023/09/26 05:02:11;;;;;;;11.73;8.48;;;11.60;93.50;;;;;;5016171;28;20431;-72
2023/09/26 05:04:37;;;;;;;13.20;8.27;;;11.60;93.60;;;;;;5014967;28;20446;-72
2023/09/26 05:07:02;;;;;;;12.10;8.40;;;11.50;94.10;;;;;;5015692;28;20391;-73
2023/09/26 05:09:28;;;;;;;10.10;7.80;;;11.50;93.60;;;;;;5016783;28;20377;-73
2023/09/26 05:11:54;;;;;;;15.57;8.30;;;11.50;92.50;;;;;;5015710;28;20389;-72
2023/09/26 05:14:19;;;;;;;10.73;7.33;;;11.50;92.10;;;;;;5017794;28;20777;-72
2023/09/26 05:16:45;;;;;;;11.70;7.90;;;11.50;90.30;;;;;;5015679;28;20391;-73
2023/09/26 05:19:10;;;;;;;12.57;7.80;;;11.50;90.90;;;;;;5016339;28;20785;-72
2023/09/26 05:21:36;;;;;;;12.10;7.70;;;11.60;89.60;;;;;;5014193;28;20809;-72
2023/09/26 05:24:01;;;;;;;11.32;7.63;;;11.60;87.80;;;;;;5015179;28;20396;-70
2023/09/26 05:26:28;;;;;;;11.18;8.13;;;11.70;86.10;;;;;;5013876;28;20429;-73
2023/09/26 05:28:53;;;;;;;10.40;7.80;;;11.70;86.00;;;;;;5010949;28;20388;-73
2023/09/26 05:31:19;;;;;;;13.80;8.20;;;11.60;86.20;;;;;;4992855;28;20447;-72
2023/09/26 05:33:44;;;;;;;13.97;8.70;;;11.60;87.20;;;;;;5010809;28;20439;-72
2023/09/26 05:36:10;;;;;;;12.57;8.80;;;11.60;87.00;;;;;;5010950;28;20424;-72
2023/09/26 05:38:36;;;;;;;12.98;8.43;;;11.60;86.80;;;;;;5010591;28;20423;-72
2023/09/26 05:41:01;;;;;;;12.20;8.88;;;11.60;86.70;;;;;;5010531;28;20396;-71
2023/09/26 05:43:28;;;;;;;10.87;7.70;;;11.60;86.90;;;;;;5010561;28;20388;-71
2023/09/26 05:45:54;;;;;;;9.60;7.70;;;11.70;86.30;;;;;;5010424;28;20406;-71
2023/09/26 05:48:20;;;;;;;14.63;7.90;;;11.70;85.50;;;;;;4992446;28;20785;-70
2023/09/26 05:50:45;;;;;;;17.25;8.10;;;11.70;86.70;;;;;;5010646;28;20591;-71
2023/09/26 05:53:12;;;;;;;13.82;8.52;;;11.70;86.60;;;;;;5010164;28;20385;-73
2023/09/26 05:55:38;;;;;;;15.68;8.10;;;11.70;86.60;;;;;;5010659;28;20392;-71
2023/09/26 05:58:03;;;;;;;18.00;8.75;;;11.70;86.10;;;;;;5010485;28;20455;-71
2023/09/26 06:00:29;;;;;;;13.43;8.65;;;11.80;84.70;;;;;;5009810;28;20388;-70
2023/09/26 06:02:55;;;;;;;14.55;8.45;;;11.80;84.50;;;;;;5009240;28;20401;-73
2023/09/26 06:05:20;;;;;;;14.20;8.40;;;11.90;84.00;;;;;;5009813;28;20680;-71
2023/09/26 06:07:46;;;;;;;13.63;8.40;;;12.00;83.40;;;;;;5009493;28;20447;-71
2023/09/26 06:10:11;;;;;;;14.83;7.87;;;12.00;80.80;;;;;;5009074;28;20408;-72
2023/09/26 06:12:38;;;;;;;13.07;7.88;;;12.10;80.30;;;;;;5009927;28;20413;-71
2023/09/26 06:15:05;;;;;;;10.32;8.55;;;12.10;80.20;;;;;;5009906;28;20397;-72
2023/09/26 06:17:31;;;;;;;14.18;8.82;;;12.30;78.90;;;;;;5007368;28;20652;-73
2023/09/26 06:19:57;;;;;;;9.98;8.15;;;12.40;77.40;;;;;;4992886;28;20400;-74
2023/09/26 06:22:22;;;;;;;12.93;8.30;;;12.40;75.70;;;;;;5006722;28;20937;-72
2023/09/26 06:24:48;;;;;;;14.27;8.63;;;12.40;74.60;;;;;;5002612;28;20905;-71
2023/09/26 06:27:14;;;;;;;13.37;8.77;;;12.50;72.70;;;;;;5011183;28;20436;-71
2023/09/26 06:29:39;;;;;;;12.13;9.07;;;12.60;73.30;;;;;;5011272;28;20447;-71
2023/09/26 06:32:05;;;;;;;11.48;8.20;;;12.60;72.50;;;;;;5010657;28;20431;-71
2023/09/26 06:34:31;;;;;;;17.42;8.95;;;12.70;73.00;;;;;;5011415;28;20388;-71
2023/09/26 06:36:57;;;;;;;13.85;8.27;;;12.70;70.80;;;;;;5011541;28;20392;-72
2023/09/26 06:39:24;;;;;;;17.30;8.20;;;12.70;69.80;;;;;;5009367;28;20832;-71
2023/09/26 06:41:49;;;;;;;10.85;7.78;;;12.80;69.10;;;;;;5010579;28;20881;-72
2023/09/26 06:44:15;;;;;;;11.77;7.57;;;12.90;68.70;;;;;;5011450;28;20396;-73
2023/09/26 06:46:41;;;;;;;16.67;8.17;;;13.00;68.90;;;;;;5010625;28;20451;-72
2023/09/26 06:49:07;;;;;;;12.40;7.50;;;13.10;67.40;;;;;;5011307;28;20408;-73
2023/09/26 06:51:33;;;;;;;9.95;7.85;;;13.20;65.30;;;;;;5010534;28;20776;-77
2023/09/26 06:53:59;;;;;;;13.15;8.10;;;13.30;63.80;;;;;;4993655;28;20400;-72
2023/09/26 06:56:25;;;;;;;15.73;7.38;;;13.40;64.20;;;;;;5011539;28;20406;-72
2023/09/26 06:58:51;;;;;;;9.45;7.20;;;13.40;62.90;;;;;;5012162;28;20828;-73
2023/09/26 07:01:18;;;;;;;10.40;7.47;;;13.50;60.80;;;;;;5010723;28;20451;-72
2023/09/26 07:03:44;;;;;;;12.73;7.55;;;13.70;60.00;;;;;;5014101;28;20397;-72
2023/09/26 07:06:11;;;;;;;15.93;7.97;;;13.90;59.30;;;;;;5016339;28;20469;-72
2023/09/26 07:08:38;;;;;;;13.52;7.47;;;13.90;58.00;;;;;;5010687;28;20861;-72
2023/09/26 07:11:05;;;;;;;15.57;7.70;;;14.00;57.60;;;;;;5000895;28;20707;-73
2023/09/26 07:13:30;;;;;;;9.37;7.37;;;14.00;56.90;;;;;;5013857;28;20463;-73
2023/09/26 07:16:00;;;;;;;14.67;7.30;;;14.20;56.50;;;;;;5010555;28;20457;-72
2023/09/26 07:18:25;;;;;;;11.45;6.88;;;14.30;55.30;;;;;;5010448;28;20412;-73
2023/09/26 07:20:51;;;;;;;12.33;7.00;;;14.40;53.70;;;;;;5010501;28;20397;-70
2023/09/26 07:23:17;;;;;;;10.97;6.77;;;14.50;53.00;;;;;;5010533;28;20411;-73
2023/09/26 07:25:43;;;;;;;11.95;6.90;;;14.60;52.40;;;;;;5011366;28;20431;-72
2023/09/26 07:28:08;;;;;;;13.25;7.00;;;14.70;52.10;;;;;;5015264;28;20452;-72
2023/09/26 07:30:34;;;;;;;57.27;33.20;;;14.90;51.00;;;;;;5015430;28;20400;-72
2023/09/26 07:33:00;;;;;;;64.93;38.17;;;15.00;50.90;;;;;;5013595;28;20392;-69
2023/09/26 07:35:27;;;;;;;90.93;49.03;;;15.20;50.60;;;;;;5012204;28;20397;-71
2023/09/26 07:37:54;;;;;;;37.58;21.83;;;15.40;50.50;;;;;;5014288;28;20408;-72
2023/09/26 07:40:20;;;;;;;177.23;103.95;;;15.50;47.70;;;;;;5008675;28;20412;-72
2023/09/26 07:42:45;;;;;;;82.90;50.70;;;15.70;46.60;;;;;;5009719;28;20412;-72
2023/09/26 07:45:14;;;;;;;85.70;50.77;;;15.80;46.50;;;;;;5013142;28;20424;-73
2023/09/26 07:47:39;;;;;;;30.08;16.50;;;15.80;46.20;;;;;;5009601;28;20861;-73
2023/09/26 07:50:06;;;;;;;38.88;23.02;;;15.90;43.00;;;;;;4993133;28;20384;-72
2023/09/26 07:52:31;;;;;;;14.20;8.17;;;15.90;42.10;;;;;;5008333;28;20443;-73
2023/09/26 07:54:57;;;;;;;44.23;28.23;;;16.10;41.20;;;;;;5011247;28;20676;-73
2023/09/26 07:57:23;;;;;;;29.65;18.88;;;16.20;39.90;;;;;;5010654;28;20809;-75
2023/09/26 07:59:49;;;;;;;15.15;7.35;;;16.30;39.70;;;;;;5011382;28;20389;-74
2023/09/26 08:02:15;;;;;;;14.35;7.18;;;16.40;38.70;;;;;;4991511;28;20397;-73
2023/09/26 08:04:40;;;;;;;13.43;5.93;;;16.50;38.40;;;;;;4990674;28;20398;-74
2023/09/26 08:07:06;;;;;;;13.77;7.43;;;16.50;39.10;;;;;;4973460;28;20803;-73
2023/09/26 08:09:32;;;;;;;12.80;8.50;;;16.60;38.80;;;;;;5002028;28;20475;-73
2023/09/26 08:11:58;;;;;;;16.30;9.75;;;16.80;39.50;;;;;;5010574;28;20403;-73
2023/09/26 08:14:24;;;;;;;12.82;8.00;;;16.90;38.90;;;;;;5009940;28;20451;-73
2023/09/26 08:16:49;;;;;;;17.85;8.88;;;17.10;38.10;;;;;;4992047;28;20803;-72
2023/09/26 08:19:15;;;;;;;19.40;10.98;;;17.10;38.00;;;;;;5002700;28;20935;-73
2023/09/26 08:21:40;;;;;;;12.97;9.23;;;17.30;37.50;;;;;;4991616;28;20386;-73
2023/09/26 08:24:06;;;;;;;13.13;8.23;;;17.40;37.30;;;;;;5004126;28;20397;-73
2023/09/26 08:26:32;;;;;;;27.48;15.75;;;17.50;37.00;;;;;;5009592;28;20858;-74
2023/09/26 08:28:58;;;;;;;10.80;7.53;;;17.50;36.30;;;;;;5009968;28;20398;-73
2023/09/26 08:31:23;;;;;;;11.23;6.95;;;17.60;36.60;;;;;;4991708;28;20408;-73
2023/09/26 08:33:49;;;;;;;11.47;6.87;;;17.70;36.50;;;;;;5009454;28;20888;-72
2023/09/26 08:36:21;;;;;;;10.55;6.95;;;17.70;36.10;;;;;;4996790;28;20756;-72
2023/09/26 08:38:48;;;;;;;10.40;6.50;;;17.80;35.00;;;;;;4990047;28;20776;-71
2023/09/26 08:41:17;;;;;;;11.63;5.30;;;17.80;35.30;;;;;;4986943;28;20526;-72
2023/09/26 08:43:43;;;;;;;15.18;6.10;;;17.80;35.50;;;;;;4989765;28;20391;-73
2023/09/26 08:46:10;;;;;;;46.35;31.98;;;17.90;35.80;;;;;;4989556;28;20975;-72
2023/09/26 08:48:37;;;;;;;22.55;9.95;;;18.00;35.50;;;;;;4988973;28;20426;-71
2023/09/26 08:51:04;;;;;;;16.17;8.60;;;18.10;35.10;;;;;;4988815;28;20855;-70
2023/09/26 08:53:29;;;;;;;9.90;5.80;;;18.20;34.50;;;;;;4996314;28;20423;-71
2023/09/26 08:55:55;;;;;;;11.10;6.60;;;18.20;33.80;;;;;;5008487;28;20409;-73
2023/09/26 08:58:21;;;;;;;12.50;5.70;;;18.20;34.00;;;;;;5008763;28;20419;-70
2023/09/26 09:00:47;;;;;;;7.27;5.63;;;18.40;33.70;;;;;;5008819;28;20384;-70
2023/09/26 09:03:13;;;;;;;12.27;6.82;;;18.50;33.50;;;;;;5008037;28;20425;-70
2023/09/26 09:05:40;;;;;;;13.77;8.67;;;18.40;34.00;;;;;;5008547;28;20499;-70
2023/09/26 09:08:16;;;;;;;8.75;4.72;;;18.50;33.50;;;;;;5008474;28;20446;-71
2023/09/26 09:10:55;;;;;;;7.65;4.70;;;18.50;32.50;;;;;;5008151;28;20890;-71
2023/09/26 09:13:29;;;;;;;6.07;4.68;;;18.50;32.80;;;;;;5008740;28;20488;-71
2023/09/26 09:16:15;;;;;;;7.90;4.70;;;18.70;32.40;;;;;;5008862;28;20450;-73
2023/09/26 09:18:47;;;;;;;7.07;4.30;;;18.70;30.60;;;;;;5032402;23;20453;-76
2023/09/26 09:21:33;;;;;;;7.05;4.20;;;18.70;31.40;;;;;;5047054;28;20402;-76
2023/09/26 09:24:04;;;;;;;9.98;4.95;;;18.80;31.90;;;;;;5048479;28;20860;-76
2023/09/26 09:26:32;;;;;;;7.25;4.57;;;18.90;32.20;;;;;;5054589;28;20381;-77
2023/09/26 09:29:14;;;;;;;7.40;4.45;;;18.90;31.00;;;;;;5049705;28;20464;-74
2023/09/26 09:31:40;;;;;;;9.13;4.20;;;19.00;30.30;;;;;;5050911;28;20456;-76
2023/09/26 09:34:05;;;;;;;6.93;4.30;;;19.10;30.80;;;;;;5034237;28;20511;-74
2023/09/26 09:36:31;;;;;;;8.40;4.40;;;19.20;31.50;;;;;;5051272;28;20411;-72
2023/09/26 09:38:56;;;;;;;7.20;4.23;;;19.40;31.10;;;;;;5035670;28;20431;-74
2023/09/26 09:41:22;;;;;;;6.50;4.30;;;19.50;29.90;;;;;;5034278;28;20398;-75
2023/09/26 09:43:47;;;;;;;9.65;4.28;;;19.40;28.60;;;;;;5044795;28;20421;-75
2023/09/26 09:46:16;;;;;;;6.93;4.30;;;19.40;29.70;;;;;;5029264;28;20752;-76
2023/09/26 09:48:44;;;;;;;8.02;4.18;;;19.50;30.20;;;;;;5008991;28;20488;-75
2023/09/26 09:51:14;;;;;;;5.75;4.13;;;19.70;30.00;;;;;;5028068;28;20391;-75
2023/09/26 09:53:53;;;;;;;7.82;4.22;;;19.80;29.10;;;;;;5029110;28;20395;-75
2023/09/26 09:56:20;;;;;;;11.23;4.40;;;19.90;29.20;;;;;;5030171;28;20477;-74
2023/09/26 09:58:50;;;;;;;5.60;3.70;;;19.90;29.50;;;;;;5033733;28;20882;-76
2023/09/26 10:01:20;;;;;;;11.15;4.40;;;20.00;29.20;;;;;;5034392;28;20391;-75
2023/09/26 10:03:50;;;;;;;7.57;3.78;;;20.00;28.90;;;;;;5034811;28;20379;-75
2023/09/26 10:06:16;;;;;;;5.47;3.60;;;20.20;28.90;;;;;;5034374;28;20394;-75
2023/09/26 10:08:43;;;;;;;7.70;3.60;;;20.20;27.60;;;;;;5034344;28;20767;-75
2023/09/26 10:11:10;;;;;;;5.88;3.88;;;20.20;26.80;;;;;;5016619;28;20391;-75
2023/09/26 10:13:35;;;;;;;6.57;3.60;;;20.20;26.80;;;;;;5034493;28;20437;-75
2023/09/26 10:16:11;;;;;;;4.40;3.10;;;20.60;26.60;;;;;;5034446;28;20406;-76
2023/09/26 10:18:41;;;;;;;5.45;3.25;;;20.60;25.80;;;;;;5033999;28;20411;-76
2023/09/26 10:21:30;;;;;;;6.60;3.63;;;20.60;26.10;;;;;;5034109;28;20390;-76
2023/09/26 10:24:04;;;;;;;5.97;3.50;;;20.70;25.60;;;;;;5034223;28;20450;-75
2023/09/26 10:26:30;;;;;;;5.80;3.50;;;20.70;26.50;;;;;;5034480;28;20953;-74
2023/09/26 10:29:01;;;;;;;5.87;3.30;;;20.90;24.50;;;;;;5034228;28;20390;-74
2023/09/26 10:31:29;;;;;;;7.60;3.35;;;21.00;24.50;;;;;;5033679;28;20386;-75
2023/09/26 10:33:57;;;;;;;5.37;3.20;;;21.00;23.20;;;;;;5033936;28;20379;-76
2023/09/26 10:36:23;;;;;;;6.75;3.45;;;21.10;23.00;;;;;;5033774;28;20383;-76
2023/09/26 10:39:05;;;;;;;6.40;2.95;;;21.10;21.90;;;;;;5037191;28;20403;-75
2023/09/26 10:41:31;;;;;;;6.28;3.20;;;21.20;22.20;;;;;;5045487;28;20542;-75
2023/09/26 10:43:56;;;;;;;5.25;3.13;;;21.30;21.80;;;;;;5034200;28;20375;-75
2023/09/26 10:46:22;;;;;;;10.88;3.28;;;21.50;22.80;;;;;;5042131;28;20386;-74
2023/09/26 10:48:48;;;;;;;6.60;3.00;;;21.60;20.80;;;;;;5047167;28;20395;-75
2023/09/26 10:51:15;;;;;;;5.22;2.78;;;21.80;20.30;;;;;;5046146;28;20763;-75
2023/09/26 10:53:41;;;;;;;6.32;3.28;;;21.80;19.90;;;;;;5033904;28;20915;-75
2023/09/26 10:56:08;;;;;;;5.83;2.90;;;21.70;19.80;;;;;;5040972;28;20457;-76
2023/09/26 10:58:34;;;;;;;6.60;3.00;;;21.90;19.80;;;;;;5040093;28;20417;-75
2023/09/26 11:00:59;;;;;;;5.72;2.80;;;22.00;18.80;;;;;;5037989;28;20470;-77
2023/09/26 11:03:25;;;;;;;2.92;2.33;;;22.10;19.00;;;;;;5044868;28;20446;-76
2023/09/26 11:05:51;;;;;;;5.50;2.87;;;22.00;18.50;;;;;;5060285;28;20382;-77
2023/09/26 11:08:17;;;;;;;5.57;2.67;;;21.90;18.30;;;;;;5049629;28;20453;-76
2023/09/26 11:10:48;;;;;;;4.57;2.58;;;21.90;18.50;;;;;;5026005;28;20407;-76
2023/09/26 11:13:14;;;;;;;6.93;2.60;;;21.90;18.60;;;;;;5042564;28;20414;-76
2023/09/26 11:15:40;;;;;;;5.20;2.70;;;22.00;18.70;;;;;;5045157;28;20395;-77
2023/09/26 11:18:11;;;;;;;5.13;2.50;;;22.10;18.50;;;;;;5041409;28;20403;-77
2023/09/26 11:20:37;;;;;;;3.22;2.60;;;22.20;18.20;;;;;;5045757;28;20417;-77
2023/09/26 11:23:03;;;;;;;4.60;2.50;;;22.20;17.80;;;;;;5055386;28;20536;-77
2023/09/26 11:25:31;;;;;;;8.75;2.80;;;22.20;17.30;;;;;;5057233;28;20413;-75
2023/09/26 11:27:57;;;;;;;5.82;3.20;;;22.40;16.90;;;;;;5041561;28;20399;-77
2023/09/26 11:30:23;;;;;;;5.72;2.58;;;22.40;16.70;;;;;;5044338;28;20466;-77
2023/09/26 11:32:54;;;;;;;7.60;3.20;;;22.40;17.60;;;;;;5036116;28;20743;-77
2023/09/26 11:35:26;;;;;;;5.85;3.00;;;22.50;17.50;;;;;;5034128;28;20517;-76
2023/09/26 11:37:53;;;;;;;7.10;2.88;;;22.50;17.30;;;;;;5033172;28;20446;-75
2023/09/26 11:40:26;;;;;;;7.53;2.90;;;22.50;17.30;;;;;;5031850;28;20429;-76
2023/09/26 11:42:55;;;;;;;9.10;3.15;;;22.50;17.50;;;;;;5031988;28;20402;-76
2023/09/26 11:45:25;;;;;;;5.82;3.00;;;22.60;17.60;;;;;;5015687;28;20402;-77
2023/09/26 11:47:52;;;;;;;5.80;3.10;;;22.70;17.50;;;;;;5017639;28;20529;-77
2023/09/26 11:50:18;;;;;;;6.70;3.10;;;22.80;17.80;;;;;;5016069;28;20398;-76
2023/09/26 11:52:44;;;;;;;6.00;2.70;;;22.80;17.70;;;;;;5033060;28;20482;-77
2023/09/26 11:55:20;;;;;;;9.32;3.30;;;22.80;17.60;;;;;;5033864;28;20415;-75
2023/09/26 11:57:48;;;;;;;6.45;3.47;;;23.00;18.10;;;;;;5036420;28;20407;-75
2023/09/26 12:00:20;;;;;;;8.25;2.60;;;23.00;17.50;;;;;;5034934;28;20679;-77
2023/09/26 12:02:50;;;;;;;5.55;2.80;;;23.00;16.80;;;;;;5033636;28;20844;-75
2023/09/26 12:05:23;;;;;;;4.97;2.90;;;23.00;17.50;;;;;;5032729;28;20391;-77
2023/09/26 12:07:51;;;;;;;6.65;3.00;;;23.00;16.90;;;;;;5034264;28;20438;-76
2023/09/26 12:10:18;;;;;;;10.53;3.20;;;23.00;16.90;;;;;;5033885;28;20752;-77
2023/09/26 12:12:44;;;;;;;8.38;3.15;;;23.00;16.90;;;;;;5016305;28;20386;-77
2023/09/26 12:15:20;;;;;;;3.90;2.83;;;23.10;16.50;;;;;;5018403;28;20387;-77
2023/09/26 12:17:53;;;;;;;4.15;2.70;;;23.20;16.00;;;;;;5035946;28;20478;-76
2023/09/26 12:20:24;;;;;;;4.90;2.90;;;23.20;16.30;;;;;;5035337;28;20405;-76
2023/09/26 12:22:51;;;;;;;5.20;2.80;;;23.20;16.50;;;;;;5033276;28;20474;-76
2023/09/26 12:25:19;;;;;;;5.28;3.00;;;23.20;16.70;;;;;;5032930;28;20752;-76
2023/09/26 12:27:45;;;;;;;10.88;3.53;;;23.30;16.90;;;;;;5035637;28;20417;-74
2023/09/26 12:30:12;;;;;;;10.60;3.40;;;23.30;16.50;;;;;;5035443;28;20478;-76
2023/09/26 12:32:37;;;;;;;6.68;3.20;;;23.50;17.20;;;;;;5017094;28;20387;-77
2023/09/26 12:35:05;;;;;;;6.43;2.70;;;23.60;16.80;;;;;;5019786;28;20466;-76
2023/09/26 12:37:30;;;;;;;8.52;3.22;;;23.60;16.60;;;;;;5040282;28;20398;-77
2023/09/26 12:39:56;;;;;;;9.63;3.50;;;23.70;16.40;;;;;;5042059;28;20427;-77
2023/09/26 12:42:22;;;;;;;6.77;2.80;;;23.80;16.50;;;;;;5018792;28;20414;-76
2023/09/26 12:44:47;;;;;;;5.40;3.53;;;23.90;16.90;;;;;;5034761;28;20382;-76